Language: 


Des rapports , des résumés tant et plus, au choix de chacun....


Données statistiques de la station
Quotidien Rapport Mars 17, 2017 Unités:  Métrique    Anglais   les deux
« Précédent Jour
Suivant Jour »
Quotidien Hebdomadaire Mensuel Annuel Actuel
  Haut: Bas: Moyen:
Température: 13.4 °C 0.0 °C 9.6 °C
Pt de rosée: 8.9 °C -1.6 °C 5 °C
Humidité: 98 % 0 % 75 %
Vitesse du vent: 45.7 km/h 0.0 km/h 14.3 km/h
Rafales: 45.7 km/h - -
Vent:- - West
Pression: 1018.8 hPa 0.0 hPa -
Précipitation: 0.5 mm    
Historical Graphs
 
 
Données statistiques pour Mars 17, 2017
Heure Température Point de rosée Pression Vent Vitesse du vent Refales Humidité Pluie (taux horaire)
00:00 8.3 °C 6.8 °C 1016.8 hPa WSW 5.0 km/h 11.6 km/h 90 % 0.0 mm
00:05 8.1 °C 6.4 °C 1016.8 hPa West 5.5 km/h 8.7 km/h 89 % 0.0 mm
00:10 8.1 °C 6.3 °C 1016.8 hPa West 4.7 km/h 7.6 km/h 89 % 0.0 mm
00:15 7.9 °C 6.2 °C 1016.8 hPa WSW 4.7 km/h 6.4 km/h 89 % 0.0 mm
00:20 7.7 °C 5.9 °C 1016.8 hPa WSW 5.0 km/h 6.4 km/h 89 % 0.0 mm
00:25 7.3 °C 5.5 °C 1016.8 hPa WSW 6.4 km/h 7.6 km/h 88 % 0.0 mm
00:30 7.3 °C 5.7 °C 1016.8 hPa West 5.5 km/h 7.6 km/h 89 % 0.0 mm
00:35 7.3 °C 5.8 °C 1016.8 hPa West 4.0 km/h 6.9 km/h 90 % 0.0 mm
00:40 7.3 °C 5.8 °C 1016.8 hPa West 5.0 km/h 10.1 km/h 90 % 0.0 mm
00:45 7.3 °C 5.9 °C 1016.8 hPa West 3.2 km/h 10.1 km/h 91 % 0.0 mm
00:50 7.3 °C 5.9 °C 1016.8 hPa West 3.2 km/h 7.6 km/h 91 % 0.0 mm
00:55 7.2 °C 5.8 °C 1016.8 hPa West 4.0 km/h 6.4 km/h 91 % 0.0 mm
01:00 7.2 °C 5.8 °C 1016.8 hPa West 5.0 km/h 7.9 km/h 91 % 0.0 mm
01:05 7.2 °C 5.9 °C 1016.8 hPa West 4.3 km/h 10.1 km/h 92 % 0.0 mm
01:06 7.2 °C 5.9 °C 1016.8 hPa West 1.8 km/h 10.1 km/h 92 % 0.0 mm
01:11 7.2 °C 5.9 °C 1016.8 hPa WNW 8.7 km/h 10.1 km/h 92 % 0.0 mm
01:16 7.3 °C 6.2 °C 1016.8 hPa West 5.0 km/h 8.7 km/h 93 % 0.0 mm
01:21 7.3 °C 6.3 °C 1016.8 hPa WSW 5.8 km/h 9.7 km/h 93 % 0.0 mm
01:26 7.4 °C 6.4 °C 1018.2 hPa West 10.5 km/h 10.5 km/h 93 % 0.0 mm
01:31 7.7 °C 6.7 °C 1018.2 hPa West 5.0 km/h 12.2 km/h 94 % 0.0 mm
01:36 7.7 °C 6.8 °C 1018.2 hPa West 12.2 km/h 13.7 km/h 94 % 0.0 mm
01:41 7.7 °C 7.0 °C 1016.8 hPa West 7.9 km/h 13.7 km/h 95 % 0.0 mm
01:46 7.7 °C 7.0 °C 1016.8 hPa West 9.3 km/h 13.7 km/h 95 % 0.0 mm
01:51 7.7 °C 7.0 °C 1016.8 hPa West 5.0 km/h 13.7 km/h 95 % 0.0 mm
01:56 7.7 °C 7.0 °C 1016.8 hPa WSW 6.4 km/h 11.6 km/h 95 % 0.0 mm
02:01 0.0 °C 7.0 °C 0.0 hPa West 5.8 km/h 9.3 km/h 0 % 0.0 mm
02:06 7.6 °C 6.8 °C 1016.8 hPa WSW 6.9 km/h 9.3 km/h 95 % 0.0 mm
02:12 7.6 °C 6.8 °C 1016.8 hPa West 9.3 km/h 9.3 km/h 95 % 0.0 mm
02:17 7.7 °C 7.1 °C 1016.8 hPa West 9.3 km/h 11.9 km/h 96 % 0.0 mm
02:22 7.7 °C 7.1 °C 1016.8 hPa West 8.7 km/h 11.9 km/h 96 % 0.0 mm
02:27 7.7 °C 7.2 °C 1016.8 hPa West 6.1 km/h 12.2 km/h 96 % 0.0 mm
02:32 7.8 °C 7.2 °C 1016.8 hPa West 7.9 km/h 12.2 km/h 96 % 0.0 mm
02:37 7.9 °C 7.3 °C 1016.8 hPa WSW 6.1 km/h 12.6 km/h 96 % 0.0 mm
02:42 7.9 °C 7.3 °C 1016.8 hPa West 9.3 km/h 14.0 km/h 96 % 0.0 mm
02:47 8.1 °C 7.4 °C 1016.8 hPa West 9.3 km/h 14.0 km/h 96 % 0.0 mm
02:52 8.1 °C 7.7 °C 1016.8 hPa West 7.9 km/h 12.6 km/h 97 % 0.0 mm
02:57 8.1 °C 7.7 °C 1016.8 hPa West 8.7 km/h 10.5 km/h 97 % 0.0 mm
03:02 8.2 °C 7.8 °C 1016.8 hPa SW 10.5 km/h 11.9 km/h 97 % 0.0 mm
03:07 0.0 °C 7.8 °C 1016.8 hPa West 9.3 km/h 10.5 km/h 0 % 0.0 mm
03:12 8.2 °C 7.8 °C 1016.8 hPa NW 9.7 km/h 13.7 km/h 97 % 0.0 mm
03:17 8.3 °C 7.9 °C 1016.8 hPa West 9.0 km/h 13.7 km/h 97 % 0.0 mm
03:22 8.3 °C 7.9 °C 1016.8 hPa West 6.4 km/h 10.1 km/h 97 % 0.0 mm
03:27 8.3 °C 7.9 °C 1016.8 hPa West 6.9 km/h 11.1 km/h 97 % 0.0 mm
03:32 8.3 °C 7.9 °C 1016.8 hPa WNW 7.9 km/h 11.1 km/h 97 % 0.0 mm
03:37 8.4 °C 8.0 °C 1016.8 hPa West 8.7 km/h 11.9 km/h 97 % 0.0 mm
03:42 8.4 °C 8.0 °C 1016.8 hPa SSW 3.5 km/h 11.9 km/h 97 % 0.0 mm
03:47 8.4 °C 8.0 °C 1016.8 hPa SSW 7.9 km/h 11.6 km/h 97 % 0.0 mm
03:52 8.4 °C 8.0 °C 1016.8 hPa West 9.3 km/h 11.6 km/h 97 % 0.0 mm
03:57 8.4 °C 8.0 °C 1016.8 hPa WSW 7.9 km/h 10.5 km/h 97 % 0.0 mm
04:02 8.5 °C 8.1 °C 1016.8 hPa West 5.5 km/h 10.5 km/h 97 % 0.0 mm
04:07 8.5 °C 8.1 °C 1016.8 hPa West 4.0 km/h 10.5 km/h 97 % 0.0 mm
04:12 8.5 °C 8.1 °C 1016.8 hPa WNW 5.8 km/h 11.9 km/h 97 % 0.0 mm
04:17 8.5 °C 8.1 °C 1016.8 hPa West 6.1 km/h 11.9 km/h 97 % 0.0 mm
04:22 8.5 °C 8.2 °C 1016.8 hPa Calm   11.6 km/h 98 % 0.0 mm
04:27 8.5 °C 8.2 °C 1016.8 hPa West 7.9 km/h 9.7 km/h 98 % 0.0 mm
04:32 8.5 °C 8.2 °C 1016.8 hPa West 6.4 km/h 9.7 km/h 98 % 0.0 mm
04:37 8.6 °C 8.3 °C 1016.8 hPa West 6.4 km/h 7.9 km/h 98 % 0.0 mm
04:42 8.6 °C 8.3 °C 1016.8 hPa WSW 6.4 km/h 8.7 km/h 98 % 0.0 mm
04:47 8.6 °C 8.3 °C 1016.8 hPa West 5.0 km/h 10.1 km/h 98 % 0.0 mm
04:52 8.6 °C 8.3 °C 1016.8 hPa SW 2.6 km/h 10.1 km/h 98 % 0.0 mm
04:58 8.6 °C 8.3 °C 1016.8 hPa Calm   9.0 km/h 98 % 0.0 mm
05:03 8.6 °C 8.3 °C 1016.8 hPa Calm   9.7 km/h 98 % 0.0 mm
05:08 8.6 °C 8.3 °C 1016.8 hPa WSW 3.5 km/h 11.6 km/h 98 % 0.0 mm
05:13 8.6 °C 8.3 °C 1016.8 hPa WSW 4.7 km/h 11.6 km/h 98 % 0.0 mm
05:18 8.7 °C 8.3 °C 1016.8 hPa West 5.0 km/h 9.3 km/h 97 % 0.0 mm
05:23 8.7 °C 8.3 °C 1016.1 hPa West 5.5 km/h 9.0 km/h 97 % 0.0 mm
05:28 8.7 °C 8.3 °C 1016.1 hPa West 6.1 km/h 9.0 km/h 97 % 0.0 mm
05:33 8.7 °C 8.3 °C 1016.1 hPa West 4.0 km/h 7.9 km/h 97 % 0.0 mm
05:38 8.7 °C 8.3 °C 1016.8 hPa West 3.2 km/h 7.9 km/h 97 % 0.0 mm
05:43 8.7 °C 8.3 °C 1016.8 hPa West 6.4 km/h 7.6 km/h 97 % 0.0 mm
05:48 8.7 °C 8.3 °C 1016.8 hPa Calm   7.9 km/h 97 % 0.0 mm
05:53 8.7 °C 8.3 °C 1016.8 hPa Calm   7.9 km/h 97 % 0.0 mm
05:58 8.7 °C 8.3 °C 1016.8 hPa West 6.4 km/h 6.4 km/h 97 % 0.0 mm
06:03 8.6 °C 8.2 °C 1016.8 hPa West 5.8 km/h 9.0 km/h 97 % 0.0 mm
06:08 8.6 °C 8.2 °C 1016.8 hPa WSW 5.0 km/h 9.0 km/h 97 % 0.0 mm
06:13 8.5 °C 8.1 °C 1016.8 hPa West 5.5 km/h 9.3 km/h 97 % 0.0 mm
06:18 8.5 °C 8.1 °C 1016.8 hPa West 5.0 km/h 9.3 km/h 97 % 0.0 mm
06:23 8.5 °C 8.1 °C 1016.8 hPa West 7.9 km/h 9.3 km/h 97 % 0.0 mm
06:28 8.4 °C 8.0 °C 1016.8 hPa WNW 4.0 km/h 8.7 km/h 97 % 0.0 mm
06:33 8.4 °C 8.0 °C 1016.8 hPa West 4.7 km/h 6.9 km/h 97 % 0.0 mm
06:38 8.4 °C 8.0 °C 1016.8 hPa West 3.5 km/h 6.4 km/h 97 % 0.0 mm
06:43 8.5 °C 8.1 °C 1016.8 hPa West 5.0 km/h 6.1 km/h 97 % 0.0 mm
06:48 8.5 °C 8.1 °C 1016.8 hPa NW 6.9 km/h 11.9 km/h 97 % 0.0 mm
06:53 8.6 °C 8.2 °C 1016.8 hPa Calm   11.9 km/h 97 % 0.0 mm
06:58 8.6 °C 8.2 °C 1016.8 hPa West 5.0 km/h 11.9 km/h 97 % 0.0 mm
07:03 8.7 °C 8.3 °C 1016.8 hPa NNW 5.8 km/h 10.1 km/h 97 % 0.0 mm
07:08 8.7 °C 8.3 °C 1016.8 hPa Calm   10.1 km/h 97 % 0.0 mm
07:13 8.7 °C 8.1 °C 1016.8 hPa Calm   9.0 km/h 96 % 0.0 mm
07:18 8.8 °C 8.2 °C 1016.8 hPa Calm   9.0 km/h 96 % 0.0 mm
07:23 8.8 °C 8.2 °C 1016.8 hPa Calm   9.0 km/h 96 % 0.0 mm
07:28 8.8 °C 8.2 °C 1016.8 hPa West 3.2 km/h 9.0 km/h 96 % 0.0 mm
07:33 8.8 °C 8.2 °C 1016.8 hPa West 1.8 km/h 6.9 km/h 96 % 0.0 mm
07:38 8.8 °C 8.2 °C 1018.2 hPa WSW 5.5 km/h 9.0 km/h 96 % 0.0 mm
07:43 8.8 °C 8.2 °C 1018.2 hPa West 4.3 km/h 9.3 km/h 96 % 0.0 mm
07:48 8.8 °C 8.1 °C 1018.2 hPa West 5.5 km/h 9.3 km/h 95 % 0.0 mm
07:53 8.8 °C 8.1 °C 1018.2 hPa West 1.4 km/h 7.6 km/h 95 % 0.0 mm
07:58 8.8 °C 8.1 °C 1018.2 hPa West 5.0 km/h 6.4 km/h 95 % 0.0 mm
08:03 8.8 °C 8.1 °C 1018.2 hPa Calm   6.9 km/h 95 % 0.0 mm
08:08 8.9 °C 8.2 °C 1018.2 hPa WNW 4.3 km/h 8.7 km/h 95 % 0.0 mm
08:13 8.9 °C 8.2 °C 1018.2 hPa Calm   8.7 km/h 95 % 0.0 mm
08:18 9.0 °C 8.3 °C 1018.2 hPa Calm   7.9 km/h 95 % 0.0 mm
08:23 9.1 °C 8.3 °C 1018.2 hPa Calm   7.9 km/h 95 % 0.0 mm
08:28 9.2 °C 8.4 °C 1018.2 hPa NNW 3.2 km/h 6.1 km/h 95 % 0.0 mm
08:33 9.5 °C 8.7 °C 1018.2 hPa WNW 3.2 km/h 6.9 km/h 95 % 0.0 mm
08:38 9.6 °C 8.8 °C 1018.2 hPa SSW 3.2 km/h 7.9 km/h 95 % 0.0 mm
08:43 9.7 °C 8.9 °C 1018.2 hPa NW 7.2 km/h 9.7 km/h 95 % 0.0 mm
08:49 9.8 °C 8.9 °C 1018.2 hPa NW 5.8 km/h 9.7 km/h 94 % 0.0 mm
08:59 9.9 °C 8.8 °C 1018.8 hPa WNW 4.7 km/h 12.6 km/h 93 % 0.0 mm
09:04 9.9 °C 8.7 °C 1018.8 hPa NW 6.9 km/h 13.0 km/h 92 % 0.0 mm
09:09 10.2 °C 8.6 °C 1018.2 hPa WNW 6.1 km/h 13.0 km/h 90 % 0.0 mm
09:14 10.5 °C 8.1 °C 1018.2 hPa NW 4.0 km/h 12.6 km/h 85 % 0.0 mm
09:19 10.7 °C 8.1 °C 1018.2 hPa NNW 4.7 km/h 12.2 km/h 84 % 0.0 mm
09:24 10.8 °C 8.0 °C 1018.2 hPa North 11.1 km/h 12.2 km/h 83 % 0.0 mm
09:29 10.9 °C 7.9 °C 1018.2 hPa NW 5.8 km/h 11.6 km/h 82 % 0.0 mm
09:34 11.2 °C 8.1 °C 1018.2 hPa West 6.1 km/h 11.6 km/h 81 % 0.0 mm
09:39 11.3 °C 7.8 °C 1018.8 hPa North 7.9 km/h 10.5 km/h 79 % 0.0 mm
09:44 10.8 °C 6.9 °C 1018.8 hPa North 7.6 km/h 12.6 km/h 77 % 0.0 mm
09:49 10.7 °C 7.0 °C 1018.8 hPa NW 6.4 km/h 13.0 km/h 78 % 0.0 mm
09:54 10.4 °C 6.2 °C 1018.8 hPa NNW 6.4 km/h 13.0 km/h 75 % 0.0 mm
09:59 10.4 °C 6.2 °C 1018.8 hPa WNW 11.9 km/h 13.0 km/h 75 % 0.0 mm
10:04 10.4 °C 5.8 °C 1018.8 hPa NW 6.9 km/h 17.2 km/h 73 % 0.0 mm
10:09 11.1 °C 6.6 °C 1018.8 hPa WNW 4.0 km/h 17.2 km/h 74 % 0.0 mm
10:14 11.2 °C 6.3 °C 1018.8 hPa NNW 2.1 km/h 13.0 km/h 72 % 0.0 mm
10:19 11.8 °C 7.2 °C 1018.8 hPa West 2.6 km/h 12.2 km/h 73 % 0.0 mm
10:24 11.6 °C 6.5 °C 1018.8 hPa West 4.7 km/h 14.0 km/h 71 % 0.0 mm
10:29 11.1 °C 5.6 °C 1018.8 hPa NW 3.2 km/h 19.1 km/h 69 % 0.0 mm
10:34 11.4 °C 6.3 °C 1018.8 hPa WNW 2.1 km/h 19.1 km/h 71 % 0.0 mm
10:39 11.3 °C 5.8 °C 1018.8 hPa NE 9.0 km/h 12.6 km/h 69 % 0.0 mm
10:44 11.4 °C 6.1 °C 1018.8 hPa WNW 11.9 km/h 13.7 km/h 70 % 0.0 mm
10:49 11.8 °C 6.3 °C 1018.8 hPa North 5.8 km/h 13.7 km/h 69 % 0.0 mm
10:54 11.1 °C 5.2 °C 1018.8 hPa WNW 11.9 km/h 20.6 km/h 67 % 0.0 mm
10:59 11.8 °C 6.3 °C 1018.8 hPa WNW 6.1 km/h 20.6 km/h 69 % 0.0 mm
11:04 12.2 °C 6.5 °C 1018.8 hPa West 7.9 km/h 17.7 km/h 68 % 0.0 mm
11:09 12.6 °C 6.8 °C 1018.8 hPa WNW 5.5 km/h 17.7 km/h 68 % 0.0 mm
11:14 11.9 °C 5.1 °C 1018.8 hPa West 7.9 km/h 16.9 km/h 63 % 0.0 mm
11:19 11.4 °C 4.4 °C 1018.8 hPa WNW 4.0 km/h 16.9 km/h 62 % 0.0 mm
11:24 12.2 °C 5.6 °C 1018.8 hPa WSW 6.1 km/h 16.3 km/h 64 % 0.0 mm
11:29 12.2 °C 5.3 °C 1018.8 hPa West 5.0 km/h 20.1 km/h 63 % 0.0 mm
11:34 11.9 °C 4.2 °C 1018.8 hPa West 6.4 km/h 20.1 km/h 59 % 0.0 mm
11:39 11.8 °C 4.6 °C 1018.8 hPa WNW 10.8 km/h 12.2 km/h 61 % 0.0 mm
11:44 12.2 °C 4.4 °C 1018.8 hPa WNW 14.0 km/h 16.3 km/h 59 % 0.0 mm
11:49 12.1 °C 4.1 °C 1018.8 hPa WNW 7.9 km/h 16.3 km/h 58 % 0.0 mm
11:54 12.7 °C 4.8 °C 1018.8 hPa WNW 9.7 km/h 18.0 km/h 59 % 0.0 mm
11:59 12.7 °C 3.7 °C 1018.8 hPa West 10.1 km/h 23.8 km/h 54 % 0.0 mm
12:04 13.1 °C 3.8 °C 1018.8 hPa SW 9.3 km/h 23.8 km/h 53 % 0.0 mm
12:09 12.9 °C 3.6 °C 1018.8 hPa WNW 9.3 km/h 19.8 km/h 53 % 0.0 mm
12:14 12.7 °C 3.3 °C 1018.8 hPa NW 17.7 km/h 19.8 km/h 53 % 0.0 mm
12:19 12.3 °C 2.5 °C 1018.8 hPa West 12.6 km/h 17.7 km/h 51 % 0.0 mm
12:24 12.3 °C 2.5 °C 1018.8 hPa South 10.8 km/h 17.7 km/h 51 % 0.0 mm
12:29 12.7 °C 2.8 °C 1018.8 hPa West 17.2 km/h 17.2 km/h 51 % 0.0 mm
12:34 12.7 °C 3.1 °C 1018.8 hPa West 16.6 km/h 17.2 km/h 52 % 0.0 mm
12:39 12.6 °C 2.9 °C 1018.8 hPa WNW 14.0 km/h 21.6 km/h 52 % 0.0 mm
12:44 12.2 °C 2.1 °C 1018.8 hPa West 5.8 km/h 23.0 km/h 50 % 0.0 mm
12:49 12.2 °C 2.0 °C 1018.8 hPa SW 10.8 km/h 23.0 km/h 50 % 0.0 mm
12:54 12.6 °C 2.7 °C 1018.8 hPa North 9.3 km/h 20.6 km/h 51 % 0.0 mm
13:00 12.7 °C 2.5 °C 1018.8 hPa West 16.6 km/h 21.2 km/h 50 % 0.0 mm
13:05 12.7 °C 2.5 °C 1018.8 hPa East 13.0 km/h 23.0 km/h 50 % 0.0 mm
13:10 12.8 °C 2.7 °C 1018.8 hPa WSW 16.9 km/h 23.0 km/h 50 % 0.0 mm
13:15 13.1 °C 2.9 °C 1018.8 hPa South 10.1 km/h 19.1 km/h 50 % 0.0 mm
13:20 13.2 °C 2.4 °C 1018.8 hPa SE 16.6 km/h 27.0 km/h 48 % 0.0 mm
13:25 13.4 °C 2.3 °C 1018.2 hPa NW 9.3 km/h 27.0 km/h 47 % 0.0 mm
13:30 13.2 °C 2.2 °C 1018.2 hPa North 12.2 km/h 19.8 km/h 47 % 0.0 mm
13:35 13.2 °C 2.2 °C 1018.2 hPa WNW 6.9 km/h 20.9 km/h 47 % 0.0 mm
13:40 13.1 °C 1.7 °C 1018.2 hPa SSW 10.5 km/h 20.9 km/h 46 % 0.0 mm
13:45 12.7 °C 1.0 °C 1018.2 hPa WNW 16.9 km/h 19.5 km/h 45 % 0.0 mm
13:50 12.6 °C 0.9 °C 1018.2 hPa West 9.7 km/h 21.2 km/h 45 % 0.0 mm
13:55 12.9 °C 1.3 °C 1018.2 hPa WNW 4.3 km/h 21.2 km/h 45 % 0.0 mm
14:00 13.2 °C 1.6 °C 1018.2 hPa WNW 13.0 km/h 17.7 km/h 45 % 0.0 mm
14:05 13.1 °C 1.4 °C 1018.2 hPa WSW 10.5 km/h 19.5 km/h 45 % 0.0 mm
14:10 13.1 °C 1.4 °C 1018.2 hPa West 16.6 km/h 24.5 km/h 45 % 0.0 mm
14:15 13.2 °C 1.6 °C 1018.2 hPa WNW 17.2 km/h 25.6 km/h 45 % 0.0 mm
14:20 13.4 °C 1.4 °C 1018.2 hPa NW 11.6 km/h 25.6 km/h 44 % 0.0 mm
14:25 13.2 °C 1.6 °C 1018.2 hPa West 15.4 km/h 23.3 km/h 45 % 0.0 mm
14:30 13.3 °C 1.3 °C 1018.2 hPa West 23.3 km/h 24.5 km/h 44 % 0.0 mm
14:35 13.3 °C 0.7 °C 1018.2 hPa West 10.1 km/h 27.4 km/h 42 % 0.0 mm
14:40 13.2 °C 0.6 °C 1016.8 hPa WNW 6.1 km/h 24.5 km/h 42 % 0.0 mm
14:45 13.3 °C 1.0 °C 1016.8 hPa West 13.7 km/h 24.5 km/h 43 % 0.0 mm
14:50 13.4 °C 1.4 °C 1016.8 hPa SSW 23.3 km/h 23.3 km/h 44 % 0.0 mm
14:55 13.2 °C 1.6 °C 1016.8 hPa West 9.7 km/h 24.8 km/h 45 % 0.0 mm
15:00 13.4 °C 1.7 °C 1016.8 hPa West 16.3 km/h 27.4 km/h 45 % 0.0 mm
15:05 13.1 °C 1.1 °C 1016.8 hPa West 16.9 km/h 28.8 km/h 44 % 0.0 mm
15:10 12.9 °C 0.9 °C 1016.8 hPa West 19.5 km/h 28.8 km/h 44 % 0.0 mm
15:15 12.7 °C 1.1 °C 1016.8 hPa West 18.0 km/h 25.3 km/h 45 % 0.0 mm
15:20 12.6 °C 0.9 °C 1016.8 hPa West 20.1 km/h 32.0 km/h 45 % 0.0 mm
15:25 12.6 °C 0.9 °C 1016.8 hPa West 20.9 km/h 32.0 km/h 45 % 0.0 mm
15:30 12.6 °C 0.9 °C 1016.8 hPa West 21.2 km/h 28.0 km/h 45 % 0.0 mm
15:35 12.6 °C 0.9 °C 1016.8 hPa West 20.6 km/h 28.0 km/h 45 % 0.0 mm
15:40 12.4 °C 0.8 °C 1016.1 hPa West 14.0 km/h 27.0 km/h 45 % 0.0 mm
15:45 12.2 °C 0.7 °C 1016.1 hPa West 16.9 km/h 32.0 km/h 45 % 0.0 mm
15:50 12.1 °C 0.8 °C 1016.1 hPa West 32.3 km/h 32.3 km/h 46 % 0.0 mm
15:55 12.1 °C 0.8 °C 1016.8 hPa West 20.1 km/h 32.3 km/h 46 % 0.0 mm
16:00 11.8 °C 0.6 °C 1016.8 hPa WSW 20.9 km/h 32.3 km/h 46 % 0.0 mm
16:05 11.8 °C 0.5 °C 1016.8 hPa WSW 28.5 km/h 31.4 km/h 46 % 0.0 mm
16:10 11.7 °C 0.4 °C 1016.8 hPa WSW 28.0 km/h 36.4 km/h 46 % 0.0 mm
16:15 11.4 °C -0.4 °C 1016.8 hPa West 19.8 km/h 36.4 km/h 44 % 0.0 mm
16:20 11.4 °C -0.2 °C 1016.8 hPa West 20.1 km/h 32.0 km/h 45 % 0.0 mm
16:25 11.3 °C -0.9 °C 1016.8 hPa WSW 16.3 km/h 31.7 km/h 43 % 0.0 mm
16:30 11.2 °C -0.9 °C 1016.8 hPa West 22.7 km/h 31.4 km/h 43 % 0.0 mm
16:35 11.2 °C -0.9 °C 1016.8 hPa WSW 28.0 km/h 37.5 km/h 43 % 0.0 mm
16:41 11.1 °C -1.1 °C 1016.1 hPa West 21.9 km/h 37.5 km/h 43 % 0.0 mm
16:45 11.0 °C -1.1 °C 1016.1 hPa West 26.2 km/h 35.2 km/h 43 % 0.0 mm
16:46 11.0 °C -1.1 °C 1016.1 hPa WSW 17.7 km/h 35.2 km/h 43 % 0.0 mm
16:51 10.8 °C -1.3 °C 1016.1 hPa WSW 32.0 km/h 38.5 km/h 43 % 0.0 mm
16:56 10.7 °C -0.8 °C 1016.8 hPa WSW 30.9 km/h 38.5 km/h 45 % 0.0 mm
17:01 10.6 °C -0.9 °C 1016.8 hPa WSW 24.8 km/h 36.4 km/h 45 % 0.0 mm
17:06 10.4 °C -1.3 °C 1016.8 hPa WSW 37.5 km/h 37.5 km/h 44 % 0.0 mm
17:07 10.3 °C -1.4 °C 1016.8 hPa West 37.8 km/h 42.5 km/h 44 % 0.0 mm
17:12 10.2 °C -1.6 °C 1016.8 hPa WSW 41.4 km/h 42.5 km/h 44 % 0.0 mm
17:17 10.1 °C -1.6 °C 1016.8 hPa West 27.0 km/h 41.4 km/h 44 % 0.0 mm
17:22 10.0 °C -1.4 °C 1016.1 hPa West 24.5 km/h 41.4 km/h 45 % 0.0 mm
17:27 10.0 °C -1.1 °C 1016.1 hPa WSW 30.2 km/h 37.0 km/h 46 % 0.0 mm
17:32 9.9 °C -1.2 °C 1016.1 hPa West 32.0 km/h 38.5 km/h 46 % 0.0 mm
17:37 9.8 °C -1.0 °C 1016.1 hPa West 31.4 km/h 38.5 km/h 47 % 0.0 mm
17:42 9.7 °C -0.8 °C 1016.1 hPa West 32.0 km/h 38.1 km/h 48 % 0.0 mm
17:47 9.6 °C -0.9 °C 1016.1 hPa WSW 20.6 km/h 36.0 km/h 48 % 0.0 mm
17:52 9.5 °C -0.7 °C 1016.1 hPa WSW 27.4 km/h 35.6 km/h 49 % 0.0 mm
17:53 9.5 °C -0.7 °C 1016.1 hPa West 21.2 km/h 35.6 km/h 49 % 0.0 mm
17:58 9.4 °C -0.2 °C 1016.1 hPa West 28.5 km/h 32.3 km/h 51 % 0.0 mm
18:03 9.3 °C 0.2 °C 1016.1 hPa WSW 23.8 km/h 38.5 km/h 53 % 0.0 mm
18:08 9.2 °C 0.6 °C 1016.1 hPa WSW 24.5 km/h 38.5 km/h 55 % 0.0 mm
18:13 9.1 °C 1.1 °C 1016.1 hPa WSW 24.8 km/h 36.4 km/h 57 % 0.0 mm
18:18 9.0 °C 1.4 °C 1016.1 hPa West 28.0 km/h 31.4 km/h 59 % 0.0 mm
18:23 9.0 °C 1.9 °C 1016.1 hPa West 31.7 km/h 37.5 km/h 61 % 0.0 mm
18:24 9.0 °C 1.9 °C 1016.1 hPa West 26.7 km/h 37.5 km/h 61 % 0.0 mm
18:29 8.9 °C 2.0 °C 1016.1 hPa West 20.9 km/h 37.5 km/h 62 % 0.0 mm
18:39 8.7 °C 2.5 °C 1016.1 hPa WSW 17.2 km/h 35.6 km/h 65 % 0.0 mm
18:44 8.7 °C 2.7 °C 1016.1 hPa West 21.2 km/h 36.7 km/h 66 % 0.0 mm
18:49 8.6 °C 2.6 °C 1016.1 hPa WSW 25.3 km/h 36.7 km/h 66 % 0.0 mm
18:54 8.5 °C 2.7 °C 1015.1 hPa WSW 24.8 km/h 33.8 km/h 67 % 0.0 mm
18:59 8.5 °C 2.7 °C 1015.1 hPa West 28.5 km/h 38.1 km/h 67 % 0.0 mm
19:04 8.4 °C 2.8 °C 1015.1 hPa WSW 23.8 km/h 38.1 km/h 68 % 0.0 mm
19:09 8.4 °C 3.1 °C 1015.1 hPa West 24.8 km/h 28.5 km/h 69 % 0.0 mm
19:14 8.3 °C 2.9 °C 1015.1 hPa WSW 20.6 km/h 24.8 km/h 69 % 0.0 mm
19:19 8.3 °C 3.4 °C 1015.1 hPa WSW 27.7 km/h 27.7 km/h 71 % 0.0 mm
19:24 8.3 °C 3.6 °C 1015.1 hPa West 27.0 km/h 29.1 km/h 72 % 0.0 mm
19:29 8.3 °C 3.6 °C 1015.1 hPa WSW 24.5 km/h 32.0 km/h 72 % 0.0 mm
19:34 8.3 °C 3.6 °C 1015.1 hPa WSW 19.1 km/h 32.0 km/h 72 % 0.0 mm
19:39 8.3 °C 3.8 °C 1015.1 hPa WSW 18.3 km/h 28.0 km/h 73 % 0.0 mm
19:44 8.3 °C 3.9 °C 1015.1 hPa WSW 22.7 km/h 35.6 km/h 74 % 0.0 mm
19:49 8.3 °C 3.9 °C 1015.1 hPa WSW 20.1 km/h 35.6 km/h 74 % 0.0 mm
19:54 8.2 °C 3.9 °C 1015.1 hPa WSW 20.1 km/h 34.3 km/h 74 % 0.0 mm
19:59 8.2 °C 4.1 °C 1015.1 hPa West 25.9 km/h 31.7 km/h 75 % 0.0 mm
20:04 8.2 °C 4.1 °C 1015.1 hPa West 24.5 km/h 37.0 km/h 75 % 0.0 mm
20:09 8.2 °C 4.1 °C 1015.1 hPa WSW 19.8 km/h 37.0 km/h 75 % 0.0 mm
20:14 8.2 °C 4.1 °C 1015.1 hPa WSW 23.8 km/h 36.4 km/h 75 % 0.0 mm
20:19 8.2 °C 4.1 °C 1015.1 hPa West 20.6 km/h 36.4 km/h 75 % 0.0 mm
20:24 8.2 °C 4.2 °C 1014.1 hPa WSW 24.8 km/h 32.0 km/h 76 % 0.0 mm
20:29 8.2 °C 4.2 °C 1014.1 hPa WSW 23.8 km/h 32.0 km/h 76 % 0.0 mm
20:34 8.3 °C 4.6 °C 1014.1 hPa WSW 20.6 km/h 30.9 km/h 77 % 0.0 mm
20:39 8.3 °C 4.6 °C 1015.1 hPa WSW 21.9 km/h 31.4 km/h 77 % 0.0 mm
20:44 8.3 °C 4.7 °C 1015.1 hPa WSW 27.7 km/h 31.4 km/h 78 % 0.0 mm
20:49 8.3 °C 4.9 °C 1015.1 hPa WSW 28.5 km/h 30.9 km/h 79 % 0.0 mm
20:54 8.3 °C 5.1 °C 1014.1 hPa WSW 30.9 km/h 31.4 km/h 80 % 0.0 mm
20:59 8.3 °C 5.1 °C 1014.1 hPa WSW 18.0 km/h 33.1 km/h 80 % 0.0 mm
21:04 8.3 °C 5.3 °C 1014.1 hPa SW 31.4 km/h 36.0 km/h 81 % 0.0 mm
21:09 8.4 °C 5.3 °C 1013.1 hPa WSW 28.5 km/h 39.6 km/h 81 % 0.0 mm
21:14 8.4 °C 5.3 °C 1013.1 hPa WSW 25.3 km/h 40.4 km/h 81 % 0.0 mm
21:19 8.5 °C 5.4 °C 1013.1 hPa WSW 38.1 km/h 40.4 km/h 81 % 0.0 mm
21:24 8.5 °C 5.4 °C 1013.1 hPa SW 26.7 km/h 38.5 km/h 81 % 0.0 mm
21:29 8.5 °C 5.4 °C 1013.1 hPa WSW 25.9 km/h 38.5 km/h 81 % 0.0 mm
21:30 8.5 °C 5.4 °C 1013.1 hPa WSW 30.9 km/h 38.5 km/h 81 % 0.0 mm
21:35 8.5 °C 5.4 °C 1013.1 hPa WSW 26.7 km/h 41.0 km/h 81 % 0.0 mm
21:40 8.5 °C 5.4 °C 1012.1 hPa WSW 32.0 km/h 41.0 km/h 81 % 0.0 mm
21:45 8.6 °C 5.7 °C 1012.1 hPa WSW 21.2 km/h 40.4 km/h 82 % 0.0 mm
21:50 8.6 °C 5.7 °C 1012.1 hPa WSW 28.5 km/h 40.4 km/h 82 % 0.0 mm
21:55 8.6 °C 5.7 °C 1013.1 hPa WSW 21.2 km/h 39.6 km/h 82 % 0.0 mm
22:00 8.6 °C 5.7 °C 1013.1 hPa SW 24.8 km/h 39.6 km/h 82 % 0.0 mm
22:05 8.6 °C 5.7 °C 1013.1 hPa WSW 23.3 km/h 38.1 km/h 82 % 0.0 mm
22:10 8.7 °C 5.8 °C 1013.1 hPa SSW 22.4 km/h 38.1 km/h 82 % 0.0 mm
22:15 8.7 °C 5.8 °C 1013.1 hPa WSW 34.3 km/h 39.3 km/h 82 % 0.0 mm
22:20 8.7 °C 5.8 °C 1013.1 hPa WSW 24.8 km/h 39.3 km/h 82 % 0.0 mm
22:25 8.7 °C 6.2 °C 1013.1 hPa WSW 24.8 km/h 40.7 km/h 84 % 0.0 mm
22:30 8.6 °C 6.2 °C 1013.1 hPa WSW 23.8 km/h 40.7 km/h 85 % 0.0 mm
22:35 8.5 °C 6.3 °C 1013.1 hPa WSW 20.9 km/h 37.0 km/h 86 % 0.0 mm
22:40 8.5 °C 6.5 °C 1012.1 hPa SW 28.5 km/h 37.0 km/h 87 % 0.0 mm
22:45 8.4 °C 6.6 °C 1012.1 hPa WSW 40.7 km/h 40.7 km/h 88 % 0.0 mm
22:50 8.3 °C 6.6 °C 1012.1 hPa WSW 31.7 km/h 40.7 km/h 89 % 0.0 mm
22:55 8.3 °C 6.8 °C 1011.1 hPa WSW 29.1 km/h 40.7 km/h 90 % 0.3 mm
23:00 8.3 °C 6.9 °C 1011.1 hPa WSW 33.1 km/h 37.0 km/h 91 % 0.3 mm
23:05 8.3 °C 6.9 °C 1011.1 hPa WSW 28.8 km/h 42.2 km/h 91 % 0.3 mm
23:11 8.3 °C 7.1 °C 1011.1 hPa WSW 26.7 km/h 42.2 km/h 92 % 0.3 mm
23:16 8.3 °C 7.1 °C 1011.1 hPa WSW 20.9 km/h 42.5 km/h 92 % 0.3 mm
23:21 8.3 °C 7.3 °C 1011.1 hPa West 40.7 km/h 42.5 km/h 93 % 0.5 mm
23:26 8.3 °C 7.3 °C 1011.1 hPa WSW 45.7 km/h 45.7 km/h 93 % 0.5 mm
23:31 8.3 °C 7.4 °C 1011.1 hPa WSW 30.2 km/h 45.7 km/h 94 % 0.5 mm
23:36 8.3 °C 7.4 °C 1011.1 hPa WSW 37.5 km/h 45.7 km/h 94 % 0.5 mm
23:41 8.3 °C 7.4 °C 1011.1 hPa WSW 31.4 km/h 38.5 km/h 94 % 0.5 mm
23:46 8.3 °C 7.6 °C 1011.1 hPa WSW 37.8 km/h 43.6 km/h 95 % 0.5 mm
23:51 8.3 °C 7.6 °C 1011.1 hPa WSW 28.5 km/h 43.6 km/h 95 % 0.3 mm
23:56 8.3 °C 7.6 °C 1011.1 hPa WSW 33.1 km/h 38.5 km/h 95 % 0.3 mm
Le Gheer Warneton
Courtoisie de Weather Underground - 2.25 mb

Mise a jour : 16-12-17 15:37:11
Généré par Cumulus 1.9.4 (1099)